createdAt,value
2017-05-06T00:01:26.528Z,10.30
2017-05-06T00:03:54.473Z,10.30
2017-05-06T00:06:22.429Z,10.30
2017-05-06T00:11:19.733Z,10.30
2017-05-06T00:16:17.741Z,10.20
2017-05-06T00:18:46.058Z,10.20
2017-05-06T00:21:15.118Z,10.20
2017-05-06T00:23:43.505Z,10.20
2017-05-06T00:26:11.451Z,10.20
2017-05-06T00:28:39.393Z,10.20
2017-05-06T00:31:08.093Z,10.20
2017-05-06T00:33:36.431Z,10.20
2017-05-06T00:38:33.913Z,10.10
2017-05-06T00:43:31.168Z,10.00
2017-05-06T00:45:59.545Z,10.00
2017-05-06T00:48:28.605Z,10.00
2017-05-06T00:50:56.917Z,9.90
2017-05-06T00:58:23.639Z,9.90
2017-05-06T01:00:52.009Z,9.90
2017-05-06T01:03:20.325Z,9.90
2017-05-06T01:05:48.277Z,9.80
2017-05-06T01:08:17.386Z,9.80
2017-05-06T01:10:45.701Z,9.90
2017-05-06T01:13:13.641Z,9.80
2017-05-06T01:15:41.644Z,9.80
2017-05-06T01:18:10.324Z,9.80
2017-05-06T01:20:38.656Z,9.80
2017-05-06T01:28:05.190Z,9.70
2017-05-06T01:30:33.568Z,9.80
2017-05-06T01:35:31.173Z,9.70
2017-05-06T01:37:59.838Z,9.70
2017-05-06T01:40:28.521Z,9.70
2017-05-06T01:42:56.837Z,9.60
2017-05-06T01:45:25.024Z,9.60
2017-05-06T01:47:52.977Z,9.60
2017-05-06T01:57:48.084Z,9.60
2017-05-06T02:00:16.456Z,9.60
2017-05-06T02:02:44.414Z,9.60
2017-05-06T02:05:12.729Z,9.70
2017-05-06T02:07:41.373Z,9.70
2017-05-06T02:10:10.425Z,9.60
2017-05-06T02:12:38.745Z,9.60
2017-05-06T02:15:07.022Z,9.60
2017-05-06T02:17:34.977Z,9.60
2017-05-06T02:20:03.318Z,9.60
2017-05-06T02:22:31.821Z,9.60
2017-05-06T02:24:59.769Z,9.60
2017-05-06T02:27:28.085Z,9.60
2017-05-06T02:32:24.989Z,9.60
2017-05-06T02:37:22.269Z,9.50
2017-05-06T02:42:19.513Z,9.50
2017-05-06T02:44:47.880Z,9.50
2017-05-06T02:47:15.821Z,9.40
2017-05-06T02:49:44.137Z,9.50
2017-05-06T02:52:12.513Z,9.40
2017-05-06T02:54:40.457Z,9.40
2017-05-06T02:57:08.781Z,9.40
2017-05-06T03:02:06.577Z,9.40
2017-05-06T03:07:04.193Z,9.30
2017-05-06T03:09:32.901Z,9.30
2017-05-06T03:12:00.853Z,9.30
2017-05-06T03:14:28.852Z,9.30
2017-05-06T03:16:57.533Z,9.30
2017-05-06T03:24:23.337Z,9.20
2017-05-06T03:26:52.402Z,9.30
2017-05-06T03:29:20.773Z,9.20
2017-05-06T03:31:48.717Z,9.20
2017-05-06T03:34:17.030Z,9.20
2017-05-06T03:39:14.673Z,9.20
2017-05-06T03:41:43.017Z,9.10
2017-05-06T03:44:11.005Z,9.10
2017-05-06T03:46:39.317Z,9.10
2017-05-06T03:49:08.392Z,9.10
2017-05-06T03:56:35.005Z,9.10
2017-05-06T03:59:03.034Z,9.00
2017-05-06T04:01:30.981Z,9.00
2017-05-06T04:03:58.924Z,9.00
2017-05-06T04:06:27.301Z,9.00
2017-05-06T04:08:55.257Z,9.00
2017-05-06T04:11:23.581Z,9.00
2017-05-06T04:13:51.978Z,8.90
2017-05-06T04:16:20.301Z,9.00
2017-05-06T04:18:48.246Z,8.90
2017-05-06T04:26:14.069Z,9.00
2017-05-06T04:28:42.632Z,9.00
2017-05-06T04:31:10.585Z,9.00
2017-05-06T04:33:38.545Z,8.90
2017-05-06T04:36:06.562Z,8.90
2017-05-06T04:38:34.914Z,8.90
2017-05-06T04:43:32.993Z,8.90
2017-05-06T04:46:00.936Z,8.90
2017-05-06T04:48:29.257Z,8.90
2017-05-06T04:50:57.262Z,8.90
2017-05-06T04:53:25.577Z,9.00
2017-05-06T04:55:53.544Z,9.00
2017-05-06T04:58:21.949Z,8.90
2017-05-06T05:00:50.272Z,9.00
2017-05-06T05:05:48.180Z,9.00
2017-05-06T05:08:16.125Z,9.00
2017-05-06T05:10:44.073Z,9.10
2017-05-06T05:13:12.436Z,9.10
2017-05-06T05:15:40.385Z,9.10
2017-05-06T05:18:08.339Z,9.10
2017-05-06T05:20:37.725Z,9.20
2017-05-06T05:23:06.807Z,9.20
2017-05-06T05:25:34.777Z,9.30
2017-05-06T05:28:03.538Z,9.30
2017-05-06T05:30:31.485Z,9.40
2017-05-06T05:32:59.425Z,9.40
2017-05-06T05:35:28.165Z,9.40
2017-05-06T05:37:56.481Z,9.50
2017-05-06T05:42:54.133Z,9.70
2017-05-06T05:52:49.237Z,9.90
2017-05-06T05:55:18.293Z,9.90
2017-05-06T05:57:46.286Z,9.90
2017-05-06T06:00:14.229Z,10.00
2017-05-06T06:02:42.545Z,10.10
2017-05-06T06:05:11.281Z,10.10
2017-05-06T06:07:39.593Z,10.20
2017-05-06T06:10:07.925Z,10.20
2017-05-06T06:12:37.064Z,10.30
2017-05-06T06:15:05.025Z,10.40
2017-05-06T06:17:33.357Z,10.50
2017-05-06T06:20:01.717Z,10.60
2017-05-06T06:22:30.032Z,10.70
2017-05-06T06:24:57.977Z,10.70
2017-05-06T06:29:55.512Z,10.90
2017-05-06T06:34:55.138Z,11.20
2017-05-06T06:37:23.837Z,11.30
2017-05-06T06:39:52.162Z,11.40
2017-05-06T06:42:20.163Z,11.60
2017-05-06T06:44:48.480Z,11.80
2017-05-06T06:47:16.433Z,12.00
2017-05-06T06:49:44.433Z,12.30
2017-05-06T06:52:12.754Z,12.50
2017-05-06T06:54:40.701Z,12.70
2017-05-06T06:57:09.081Z,13.10
2017-05-06T06:59:37.407Z,13.30
2017-05-06T07:02:05.737Z,13.40
2017-05-06T07:04:34.126Z,13.60
2017-05-06T07:07:02.078Z,13.80
2017-05-06T07:11:59.985Z,14.10
2017-05-06T07:14:28.674Z,14.20
2017-05-06T07:16:56.992Z,14.40
2017-05-06T07:19:26.252Z,14.50
2017-05-06T07:21:54.206Z,14.80
2017-05-06T07:24:22.154Z,15.00
2017-05-06T07:26:51.269Z,15.40
2017-05-06T07:29:20.325Z,15.60
2017-05-06T07:31:48.266Z,15.80
2017-05-06T07:34:17.489Z,16.00
2017-05-06T07:36:45.805Z,16.10
2017-05-06T07:41:43.441Z,16.40
2017-05-06T07:44:11.385Z,16.60
2017-05-06T07:46:39.697Z,16.80
2017-05-06T07:49:08.064Z,16.90
2017-05-06T07:54:05.309Z,17.20
2017-05-06T07:56:33.982Z,17.40
2017-05-06T07:59:03.049Z,17.60
2017-05-06T08:01:31.736Z,17.80
2017-05-06T08:04:00.106Z,17.90
2017-05-06T08:06:28.048Z,18.10
2017-05-06T08:08:55.989Z,18.40
2017-05-06T08:11:24.361Z,18.60
2017-05-06T08:13:52.317Z,18.80
2017-05-06T08:16:20.632Z,19.10
2017-05-06T08:18:48.625Z,19.40
2017-05-06T08:24:11.385Z,19.90
2017-05-06T08:26:39.329Z,20.30
2017-05-06T08:29:07.646Z,20.50
2017-05-06T08:34:04.947Z,21.20
2017-05-06T08:36:33.282Z,21.60
2017-05-06T08:39:01.665Z,22.00
2017-05-06T08:41:29.609Z,22.10
2017-05-06T08:43:57.552Z,22.50
2017-05-06T08:46:27.021Z,22.90
2017-05-06T08:48:56.065Z,23.30
2017-05-06T08:51:24.022Z,23.70
2017-05-06T08:53:52.768Z,24.10
2017-05-06T08:56:21.086Z,24.30
2017-05-06T09:01:18.721Z,24.60
2017-05-06T09:03:47.037Z,24.70
2017-05-06T09:06:15.353Z,24.70
2017-05-06T09:08:43.353Z,24.70
2017-05-06T09:11:11.662Z,24.90
2017-05-06T09:13:39.973Z,25.20
2017-05-06T09:16:08.213Z,25.60
2017-05-06T09:18:36.179Z,25.40
2017-05-06T09:21:04.505Z,25.70
2017-05-06T09:23:33.621Z,26.10
2017-05-06T09:26:07.692Z,26.40
2017-05-06T09:28:35.697Z,26.70
2017-05-06T09:31:04.012Z,27.00
2017-05-06T09:33:31.953Z,27.10
2017-05-06T09:35:59.949Z,27.40
2017-05-06T09:38:28.537Z,27.20
2017-05-06T09:40:56.477Z,27.10
2017-05-06T09:48:23.012Z,27.50
2017-05-06T09:50:51.385Z,27.80
2017-05-06T09:53:19.706Z,27.80
2017-05-06T09:55:47.652Z,28.00
2017-05-06T10:00:45.252Z,28.40
2017-05-06T10:03:13.628Z,28.50
2017-05-06T10:05:41.986Z,29.00
2017-05-06T10:08:10.300Z,29.30
2017-05-06T10:13:07.578Z,29.00
2017-05-06T10:15:35.909Z,29.00
2017-05-06T10:18:03.863Z,29.10
2017-05-06T10:20:33.549Z,28.90
2017-05-06T10:23:02.235Z,29.00
2017-05-06T10:25:31.289Z,29.00
2017-05-06T10:30:29.616Z,29.10
2017-05-06T10:32:57.925Z,29.40
2017-05-06T10:35:26.661Z,29.20
2017-05-06T10:37:54.969Z,29.10
2017-05-06T10:40:22.925Z,29.20
2017-05-06T10:42:50.952Z,29.20
2017-05-06T10:45:19.269Z,29.00
2017-05-06T10:47:47.945Z,29.20
2017-05-06T10:50:16.645Z,29.10
2017-05-06T10:52:45.329Z,28.70
2017-05-06T10:55:14.377Z,28.80
2017-05-06T11:00:11.633Z,28.70
2017-05-06T11:02:40.680Z,28.60
2017-05-06T11:05:09.051Z,28.80
2017-05-06T11:07:37.382Z,28.40
2017-05-06T11:12:34.593Z,28.00
2017-05-06T11:15:03.664Z,28.40
2017-05-06T11:17:32.724Z,28.60
2017-05-06T11:20:00.724Z,29.20
2017-05-06T11:22:28.665Z,29.40
2017-05-06T11:24:56.973Z,29.50
2017-05-06T11:27:25.711Z,29.50
2017-05-06T11:37:21.294Z,30.70
2017-05-06T11:39:50.344Z,30.50
2017-05-06T11:42:19.040Z,30.30
2017-05-06T11:44:48.089Z,29.30
2017-05-06T11:47:16.769Z,29.00
2017-05-06T11:49:44.762Z,29.30
2017-05-06T11:52:12.701Z,29.00
2017-05-06T11:59:38.490Z,29.70
2017-05-06T12:02:06.809Z,30.00
2017-05-06T12:04:35.652Z,29.00
2017-05-06T12:07:03.990Z,28.30
2017-05-06T12:09:33.060Z,28.10
2017-05-06T12:14:31.220Z,29.10
2017-05-06T12:16:59.157Z,29.40
2017-05-06T12:19:27.869Z,29.70
2017-05-06T12:21:56.549Z,30.10
2017-05-06T12:26:53.778Z,30.30
2017-05-06T12:29:22.818Z,30.90
2017-05-06T12:31:51.149Z,31.30
2017-05-06T12:36:48.747Z,31.70
2017-05-06T12:39:17.658Z,31.60
2017-05-06T12:41:46.454Z,31.70
2017-05-06T12:46:43.610Z,31.90
2017-05-06T12:49:12.686Z,31.40
2017-05-06T12:51:41.430Z,31.10
2017-05-06T12:54:09.718Z,31.10
2017-05-06T12:59:07.710Z,31.20
2017-05-06T13:04:05.326Z,30.80
2017-05-06T13:06:33.634Z,30.40
2017-05-06T13:09:01.576Z,30.20
2017-05-06T13:11:30.689Z,29.70
2017-05-06T13:13:58.979Z,29.60
2017-05-06T13:16:27.273Z,29.70
2017-05-06T13:21:24.119Z,28.90
2017-05-06T13:23:52.043Z,28.60
2017-05-06T13:26:20.386Z,28.70
2017-05-06T13:33:46.923Z,27.70
2017-05-06T13:36:15.587Z,27.80
2017-05-06T13:38:43.874Z,27.70
2017-05-06T13:41:11.790Z,27.40
2017-05-06T13:46:09.335Z,27.30
2017-05-06T13:48:37.638Z,26.90
2017-05-06T13:51:05.909Z,26.40
2017-05-06T13:53:33.842Z,25.90
2017-05-06T13:56:02.164Z,25.50
2017-05-06T13:58:30.478Z,25.30
2017-05-06T14:04:08.116Z,25.20
2017-05-06T14:06:37.175Z,24.80
2017-05-06T14:09:05.514Z,24.60
2017-05-06T14:11:33.456Z,24.30
2017-05-06T14:16:30.707Z,24.10
2017-05-06T14:23:56.818Z,23.80
2017-05-06T14:26:25.850Z,23.40
2017-05-06T14:28:54.652Z,23.50
2017-05-06T14:31:23.340Z,23.40
2017-05-06T14:33:52.817Z,23.20
2017-05-06T14:36:22.221Z,23.10
2017-05-06T14:38:50.146Z,22.90
2017-05-06T14:41:18.439Z,22.80
2017-05-06T14:43:46.782Z,22.90
2017-05-06T14:48:43.958Z,22.90
2017-05-06T14:51:12.310Z,22.80
2017-05-06T14:56:10.241Z,22.60
2017-05-06T15:06:05.081Z,22.00
2017-05-06T15:08:33.011Z,22.00
2017-05-06T15:13:30.247Z,22.00
2017-05-06T15:20:56.545Z,22.00
2017-05-06T15:23:24.468Z,21.90
2017-05-06T15:33:19.882Z,21.80
2017-05-06T15:35:49.060Z,21.90
2017-05-06T15:40:46.239Z,21.80
2017-05-06T15:45:43.467Z,21.70
2017-05-06T15:48:11.393Z,21.70
2017-05-06T15:50:39.735Z,21.50
2017-05-06T15:53:08.054Z,21.60
2017-05-06T15:55:36.379Z,21.50
2017-05-06T15:58:04.749Z,21.10
2017-05-06T16:00:33.059Z,21.20
2017-05-06T16:03:02.098Z,21.20
2017-05-06T16:05:30.454Z,21.20
2017-05-06T16:07:58.390Z,21.10
2017-05-06T16:10:26.690Z,21.10
2017-05-06T16:12:55.778Z,21.10
2017-05-06T16:15:24.095Z,21.10
2017-05-06T16:17:52.408Z,21.10
2017-05-06T16:22:50.291Z,21.10
2017-05-06T16:25:18.594Z,21.10
2017-05-06T16:27:46.938Z,21.00
2017-05-06T16:30:15.239Z,20.90
2017-05-06T16:32:43.538Z,21.00
2017-05-06T16:37:41.034Z,20.80
2017-05-06T16:40:10.080Z,20.80
2017-05-06T16:42:38.683Z,20.70
2017-05-06T16:45:07.745Z,20.80
2017-05-06T16:47:36.071Z,20.60
2017-05-06T16:50:04.442Z,20.60
2017-05-06T16:52:32.777Z,20.50
2017-05-06T16:55:00.714Z,20.40
2017-05-06T16:57:29.063Z,20.30
2017-05-06T16:59:58.108Z,20.30
2017-05-06T17:02:26.778Z,20.20
2017-05-06T17:09:52.554Z,20.00
2017-05-06T17:12:20.542Z,20.00
2017-05-06T17:14:48.483Z,20.00
2017-05-06T17:17:16.792Z,20.00
2017-05-06T17:19:45.871Z,20.00
2017-05-06T17:22:14.923Z,20.10
2017-05-06T17:24:43.595Z,20.20
2017-05-06T17:27:12.282Z,20.20
2017-05-06T17:29:40.213Z,20.20
2017-05-06T17:34:38.092Z,20.20
2017-05-06T17:37:06.775Z,20.10
2017-05-06T17:39:35.887Z,20.10
2017-05-06T17:42:03.915Z,20.10
2017-05-06T17:44:31.851Z,20.10
2017-05-06T17:47:00.894Z,20.10
2017-05-06T17:51:58.143Z,20.00
2017-05-06T17:54:26.822Z,19.90
2017-05-06T17:59:24.801Z,19.90
2017-05-06T18:01:53.868Z,19.90
2017-05-06T18:06:51.904Z,19.80
2017-05-06T18:11:49.148Z,19.90
2017-05-06T18:14:17.450Z,19.90
2017-05-06T18:16:45.750Z,19.80
2017-05-06T18:19:13.729Z,19.80
2017-05-06T18:21:41.661Z,19.80
2017-05-06T18:24:09.966Z,19.80
2017-05-06T18:26:37.972Z,19.90
2017-05-06T18:29:06.289Z,19.70
2017-05-06T18:31:34.603Z,19.60
2017-05-06T18:34:03.228Z,19.60
2017-05-06T18:36:32.272Z,19.50
2017-05-06T18:39:00.591Z,19.50
2017-05-06T18:41:28.834Z,19.40
2017-05-06T18:43:56.762Z,19.40
2017-05-06T18:46:25.057Z,19.40
2017-05-06T18:48:53.807Z,19.40
2017-05-06T18:51:21.760Z,19.20
2017-05-06T18:53:50.812Z,19.30
2017-05-06T18:56:19.302Z,19.30
2017-05-06T19:01:16.502Z,19.20
2017-05-06T19:03:45.609Z,19.20
2017-05-06T19:06:13.915Z,19.10
2017-05-06T19:08:41.843Z,19.10
2017-05-06T19:13:39.098Z,19.00
2017-05-06T19:16:08.147Z,18.90
2017-05-06T19:18:37.572Z,18.80
2017-05-06T19:23:34.791Z,18.70
2017-05-06T19:26:02.795Z,18.70
2017-05-06T19:28:31.098Z,18.70
2017-05-06T19:31:00.139Z,18.60
2017-05-06T19:33:28.858Z,18.70
2017-05-06T19:35:59.740Z,18.50
2017-05-06T19:38:28.067Z,18.50
2017-05-06T19:43:25.295Z,18.50
2017-05-06T19:45:53.614Z,18.50
2017-05-06T19:48:22.325Z,18.50
2017-05-06T19:53:19.539Z,18.40
2017-05-06T19:55:49.239Z,18.40
2017-05-06T19:58:17.917Z,18.40
2017-05-06T20:00:46.959Z,18.30
2017-05-06T20:08:12.718Z,18.30
2017-05-06T20:10:41.080Z,18.20
2017-05-06T20:13:09.389Z,18.10
2017-05-06T20:15:37.712Z,18.10
2017-05-06T20:18:06.091Z,18.00
2017-05-06T20:20:35.168Z,17.90
2017-05-06T20:23:03.999Z,17.90
2017-05-06T20:25:33.124Z,17.80
2017-05-06T20:28:01.433Z,17.70
2017-05-06T20:30:29.362Z,17.70
2017-05-06T20:32:57.715Z,17.60
2017-05-06T20:35:26.015Z,17.60
2017-05-06T20:40:24.002Z,17.40
2017-05-06T20:42:51.949Z,17.40
2017-05-06T20:45:20.267Z,17.30
2017-05-06T20:47:48.615Z,17.30
2017-05-06T20:50:16.914Z,17.30
2017-05-06T20:52:44.846Z,17.20
2017-05-06T20:55:13.203Z,17.10
2017-05-06T20:57:41.505Z,17.00
2017-05-06T21:00:09.814Z,17.10
2017-05-06T21:02:38.655Z,17.10
2017-05-06T21:05:06.963Z,16.90
2017-05-06T21:07:35.290Z,17.00
2017-05-06T21:10:03.312Z,17.00
2017-05-06T21:12:31.243Z,16.90
2017-05-06T21:14:59.538Z,16.90
2017-05-06T21:17:27.519Z,16.90
2017-05-06T21:19:55.459Z,16.80
2017-05-06T21:22:23.783Z,16.80
2017-05-06T21:24:52.174Z,16.80
2017-05-06T21:27:20.854Z,16.70
2017-05-06T21:29:49.155Z,16.60
2017-05-06T21:32:17.506Z,16.70
2017-05-06T21:34:45.811Z,16.60
2017-05-06T21:39:43.815Z,16.50
2017-05-06T21:42:11.746Z,16.50
2017-05-06T21:44:39.677Z,16.40
2017-05-06T21:47:09.208Z,16.40
2017-05-06T21:49:37.158Z,16.40
2017-05-06T21:52:05.120Z,16.40
2017-05-06T21:54:33.904Z,16.40
2017-05-06T21:57:02.251Z,16.40
2017-05-06T21:59:30.562Z,16.30
2017-05-06T22:04:27.443Z,16.20
2017-05-06T22:06:55.742Z,16.20
2017-05-06T22:09:24.103Z,16.10
2017-05-06T22:11:52.422Z,16.00
2017-05-06T22:14:20.733Z,16.00
2017-05-06T22:16:49.011Z,16.10
2017-05-06T22:19:16.943Z,16.00
2017-05-06T22:21:45.255Z,16.10
2017-05-06T22:24:13.747Z,16.10
2017-05-06T22:26:42.755Z,16.10
2017-05-06T22:29:10.687Z,16.10
2017-05-06T22:31:39.120Z,16.10
2017-05-06T22:34:07.078Z,16.10
2017-05-06T22:36:35.398Z,16.10
2017-05-06T22:39:03.791Z,16.10
2017-05-06T22:46:29.553Z,15.90
2017-05-06T22:48:58.795Z,15.80
2017-05-06T22:51:27.106Z,15.90
2017-05-06T22:53:55.469Z,15.80
2017-05-06T22:58:52.677Z,15.80
2017-05-06T23:01:21.394Z,15.80
2017-05-06T23:03:50.460Z,15.80
2017-05-06T23:06:18.399Z,15.80
2017-05-06T23:08:46.756Z,15.80
2017-05-06T23:11:15.063Z,15.80
2017-05-06T23:16:12.295Z,15.80
2017-05-06T23:18:40.975Z,15.80
2017-05-06T23:21:08.920Z,15.70
2017-05-06T23:23:38.279Z,15.70
2017-05-06T23:26:06.231Z,15.70
2017-05-06T23:28:34.941Z,15.70
2017-05-06T23:31:03.636Z,15.70
2017-05-06T23:36:00.928Z,15.70
2017-05-06T23:38:29.975Z,15.70
2017-05-06T23:40:58.278Z,15.60
2017-05-06T23:43:27.094Z,15.50
2017-05-06T23:45:55.034Z,15.50
2017-05-06T23:50:52.569Z,15.50
2017-05-06T23:53:20.874Z,15.50
2017-05-06T23:55:49.563Z,15.50
2017-05-06T23:58:17.947Z,15.50
